Sultan, Washington
Current Conditions -  °F | °C
As of 1:53 AM on Friday 19 Dec 2014 (Local Time) from KPAE Reporting Station
Overcast Overcast  
Wind Chill: 40°   Ceiling: 600
Heat Index: 47°   Visibility: 10mi
Dew Point: 44°   Wind: 17mph
Humidity: 90%   Direction: 170°S
Pressure: 29.78"   Gusts: 25mph
Location:  47.86°N, 121.82°W
Report Text: KPAE 190953Z AUTO 17015G22KT 10SM BKN006 OVC085 08/07 A2978 RMK AO2 RAE27 CIG 004V010 SLP086 P0000 T00830067 TSNO
Loading
Personal Weather Stations






























Interactive Weather Map New forecast layout! Learn more

10-Day Weather Forecast

Advertisements
Track Severe Weather on mobile